RJEB(METAR)
05/21 16:00
METAR RJEB 210700Z 14014KT 9999 FEW030 SCT060 BKN/// 21/14 Q0998 RMK
1CU030 3CU060 A2949=
戻る
トップページへ戻る
IMOC Co,.Ltd.